Time;durP1;ratioP1;P1;durP2;ratioP2;P2;SDS_P1;SDS_P2;PMS_P1;PMS_P2;Temp;Humidity;BMP_temperature;BMP_pressure;BME280_temperature;BME280_humidity;BME280_pressure;Samples;Min_cycle;Max_cycle;Signal;HPM_P1;HPM_P2
2023/04/09 00:00:15;;;;;;;;;1.75;1.75;;;;;11.71;56.91;100460.06;5069481;28;45419;-84
2023/04/09 00:02:41;;;;;;;;;1.00;1.00;;;;;11.65;56.52;100449.44;5070933;28;45787;-80
2023/04/09 00:05:07;;;;;;;;;1.50;1.50;;;;;11.74;56.84;100462.78;5069560;28;45902;-84
2023/04/09 00:07:32;;;;;;;;;2.25;1.75;;;;;11.72;57.14;100456.63;5067268;28;45459;-85
2023/04/09 00:09:58;;;;;;;;;2.00;2.00;;;;;11.71;56.69;100448.72;5077667;28;45629;-84
2023/04/09 00:12:23;;;;;;;;;1.75;1.75;;;;;11.77;57.19;100453.22;5085875;28;46242;-84
2023/04/09 00:14:49;;;;;;;;;1.50;1.50;;;;;11.78;56.77;100447.13;5086709;28;45459;-84
2023/04/09 00:17:15;;;;;;;;;3.00;2.25;;;;;11.75;56.68;100446.19;5067401;28;45180;-80
2023/04/09 00:19:40;;;;;;;;;2.00;1.25;;;;;11.74;56.35;100452.31;5082622;28;45074;-84
2023/04/09 00:22:14;;;;;;;;;6.00;5.00;;;;;11.73;56.74;100445.28;5083994;28;45410;-84
2023/04/09 00:24:40;;;;;;;;;5.50;5.50;;;;;11.73;56.25;100454.88;5074770;28;44740;-84
2023/04/09 00:27:05;;;;;;;;;2.75;2.75;;;;;11.68;56.18;100448.66;5075802;28;45347;-84
2023/04/09 00:29:31;;;;;;;;;2.25;2.00;;;;;11.64;56.26;100458.16;5067748;28;45348;-84
2023/04/09 00:31:57;;;;;;;;;2.50;2.00;;;;;11.61;56.01;100457.19;5057389;28;46355;-84
2023/04/09 00:34:22;;;;;;;;;1.25;1.00;;;;;11.54;55.69;100446.59;5048857;28;45355;-84
2023/04/09 00:36:48;;;;;;;;;1.00;1.00;;;;;11.58;55.92;100462.34;5066418;28;45577;-84
2023/04/09 00:39:13;;;;;;;;;2.25;1.50;;;;;11.49;55.98;100457.78;5069211;28;46095;-84
2023/04/09 00:41:39;;;;;;;;;3.25;2.00;;;;;11.44;56.23;100460.28;5068287;28;45451;-85
2023/04/09 00:44:04;;;;;;;;;2.00;2.00;;;;;11.35;56.90;100460.94;5065118;28;45492;-85
2023/04/09 00:46:31;;;;;;;;;1.75;1.75;;;;;11.23;57.18;100460.63;5064805;28;46221;-84
2023/04/09 00:48:56;;;;;;;;;2.00;1.75;;;;;11.26;57.89;100468.56;5067018;28;45434;-84
2023/04/09 00:51:22;;;;;;;;;2.00;2.00;;;;;11.20;57.42;100457.03;5056229;28;46395;-84
2023/04/09 00:53:48;;;;;;;;;11.00;9.50;;;;;11.18;56.72;100456.13;5066181;28;45493;-84
2023/04/09 00:56:16;;;;;;;;;20.00;18.25;;;;;11.12;57.36;100456.84;5067750;28;45475;-84
2023/04/09 00:58:42;;;;;;;;;5.00;3.50;;;;;11.11;57.42;100457.69;5068819;28;45579;-85
2023/04/09 01:01:07;;;;;;;;;2.00;1.00;;;;;11.10;57.52;100461.13;5075638;28;45667;-82
2023/04/09 01:03:33;;;;;;;;;1.00;1.00;;;;;11.12;57.77;100462.06;5073813;28;45762;-85
2023/04/09 01:06:04;;;;;;;;;2.00;2.00;;;;;11.05;58.30;100454.91;5072094;28;45351;-84
2023/04/09 01:08:38;;;;;;;;;2.50;1.75;;;;;11.02;57.86;100460.97;5045379;28;45734;-85
2023/04/09 01:11:23;;;;;;;;;1.00;1.00;;;;;10.99;58.37;100465.22;5069267;28;46203;-84
2023/04/09 01:14:00;;;;;;;;;1.00;1.00;;;;;11.00;58.16;100461.75;5054090;28;45525;-84
2023/04/09 01:16:31;;;;;;;;;1.75;1.00;;;;;10.99;57.41;100460.88;5065000;28;45375;-84
2023/04/09 01:19:08;;;;;;;;;1.00;1.00;;;;;10.98;58.29;100463.44;5064846;28;45452;-82
2023/04/09 01:21:35;;;;;;;;;1.00;0.50;;;;;10.99;57.98;100465.22;5067335;28;45650;-81
2023/04/09 01:24:34;;;;;;;;;1.00;1.00;;;;;10.99;58.33;100458.25;5062020;28;45784;-84
2023/04/09 01:27:07;;;;;;;;;1.75;1.75;;;;;10.89;59.23;100437.94;5062312;28;45442;-83
2023/04/09 01:29:38;;;;;;;;;2.00;1.00;;;;;10.90;59.34;100460.59;5063789;28;45339;-80
2023/04/09 01:32:06;;;;;;;;;1.00;1.00;;;;;10.89;58.42;100461.47;5070184;28;46176;-84
2023/04/09 01:34:32;;;;;;;;;1.00;1.00;;;;;10.90;57.74;100460.59;5065467;28;45596;-84
2023/04/09 01:37:01;;;;;;;;;1.00;1.00;;;;;10.88;57.56;100465.81;5075118;28;45429;-84
2023/04/09 01:39:27;;;;;;;;;1.00;1.00;;;;;10.84;57.71;100456.13;5076734;28;45333;-84
2023/04/09 01:41:55;;;;;;;;;2.00;1.00;;;;;10.83;57.70;100470.00;5076732;28;45443;-85
2023/04/09 01:44:22;;;;;;;;;0.00;0.00;;;;;10.81;57.14;100466.47;5076448;28;45295;-84
2023/04/09 01:46:49;;;;;;;;;1.25;1.25;;;;;10.80;57.40;100466.44;5077194;28;45414;-69
2023/04/09 01:49:16;;;;;;;;;1.75;1.75;;;;;10.77;57.44;100464.63;5077259;28;45454;-85
2023/04/09 01:51:42;;;;;;;;;1.00;1.00;;;;;10.72;57.28;100456.66;5076197;28;45322;-84
2023/04/09 01:54:08;;;;;;;;;1.00;1.00;;;;;10.70;58.13;100455.75;5076677;28;45370;-85
2023/04/09 01:56:45;;;;;;;;;1.00;1.00;;;;;10.64;58.20;100458.16;5074903;28;45473;-85
2023/04/09 01:59:11;;;;;;;;;1.00;1.00;;;;;10.61;58.27;100460.69;5075756;28;45467;-84
2023/04/09 02:01:46;;;;;;;;;1.00;1.00;;;;;10.65;58.35;100464.28;5075475;28;45956;-85
2023/04/09 02:04:40;;;;;;;;;1.00;1.00;;;;;10.60;58.28;100450.19;5060374;28;45434;-84
2023/04/09 02:07:38;;;;;;;;;1.00;1.00;;;;;10.45;59.23;100451.53;5071306;28;45248;-84
2023/04/09 02:10:07;;;;;;;;;0.75;0.75;;;;;10.46;58.59;100445.44;5079902;28;45250;-84
2023/04/09 02:12:36;;;;;;;;;1.00;1.00;;;;;10.49;58.54;100444.69;5079911;28;45520;-85
2023/04/09 02:15:02;;;;;;;;;1.00;1.00;;;;;10.48;58.34;100442.91;5080003;28;45398;-84
2023/04/09 02:17:28;;;;;;;;;2.00;2.00;;;;;10.41;58.72;100439.22;5080064;28;45545;-84
2023/04/09 02:19:54;;;;;;;;;2.00;1.25;;;;;10.45;58.46;100433.25;5080170;27;45557;-84
2023/04/09 02:22:19;;;;;;;;;1.00;1.00;;;;;10.47;58.58;100434.19;5078544;28;46177;-84
2023/04/09 02:24:45;;;;;;;;;0.50;0.50;;;;;10.47;58.52;100433.31;5079284;28;45469;-85
2023/04/09 02:27:11;;;;;;;;;1.50;1.50;;;;;10.48;59.11;100430.72;5080016;28;45347;-85
2023/04/09 02:29:40;;;;;;;;;1.00;1.00;;;;;10.46;59.44;100434.13;5061276;28;45517;-85
2023/04/09 02:32:06;;;;;;;;;1.00;1.00;;;;;10.48;59.05;100435.94;5079564;28;46327;-84
2023/04/09 02:34:31;;;;;;;;;1.00;1.00;;;;;10.41;59.08;100417.47;5077522;28;47072;-85
2023/04/09 02:36:57;;;;;;;;;1.00;1.00;;;;;10.35;59.30;100412.94;5079103;28;45414;-85
2023/04/09 02:39:22;;;;;;;;;1.00;1.00;;;;;10.42;58.96;100425.31;5077511;28;45418;-80
2023/04/09 02:41:48;;;;;;;;;1.00;1.00;;;;;10.44;59.07;100428.84;5041006;28;45382;-85
2023/04/09 02:44:14;;;;;;;;;1.00;1.00;;;;;10.40;59.30;100433.97;5066694;28;45490;-84
2023/04/09 02:46:40;;;;;;;;;1.00;1.00;;;;;10.30;59.34;100422.34;5060515;28;45582;-85
2023/04/09 02:49:06;;;;;;;;;2.00;2.00;;;;;10.28;59.14;100416.16;5077864;28;47186;-83
2023/04/09 02:51:34;;;;;;;;;1.75;1.00;;;;;10.37;58.98;100429.53;5078232;28;46141;-85
2023/04/09 02:53:59;;;;;;;;;1.00;1.00;;;;;10.35;58.85;100428.63;5076630;28;45476;-85
2023/04/09 02:56:25;;;;;;;;;2.00;1.00;;;;;10.34;59.25;100432.03;5078276;28;45210;-85
2023/04/09 02:58:52;;;;;;;;;1.75;1.75;;;;;10.24;59.42;100437.81;5079731;28;45474;-85
2023/04/09 03:01:19;;;;;;;;;1.00;1.00;;;;;10.18;59.21;100421.97;5060801;28;47055;-84
2023/04/09 03:03:44;;;;;;;;;2.00;1.00;;;;;9.86;59.32;100360.16;5078185;27;45360;-84
2023/04/09 03:06:10;;;;;;;;;1.00;1.00;;;;;10.21;59.85;100419.47;5075259;28;45581;-85
2023/04/09 03:08:35;;;;;;;;;1.25;1.25;;;;;10.19;59.16;100413.31;5064923;28;45533;-85
2023/04/09 03:11:01;;;;;;;;;4.00;3.00;;;;;10.16;59.09;100406.25;5077358;28;45419;-85
2023/04/09 03:13:27;;;;;;;;;1.00;1.00;;;;;10.26;58.44;100420.47;5078155;28;45583;-84
2023/04/09 03:15:53;;;;;;;;;0.50;0.25;;;;;10.25;58.53;100424.81;5077983;28;47101;-84
2023/04/09 03:18:19;;;;;;;;;2.25;2.00;;;;;10.22;58.81;100427.31;5056482;28;45651;-85
2023/04/09 03:20:44;;;;;;;;;0.00;0.00;;;;;10.22;58.20;100429.94;5068748;28;45525;-85
2023/04/09 03:23:10;;;;;;;;;2.00;1.25;;;;;10.13;58.19;100417.50;5078543;28;45231;-85
2023/04/09 03:25:36;;;;;;;;;1.50;1.00;;;;;10.14;58.69;100429.69;5077686;28;45423;-85
2023/04/09 03:28:02;;;;;;;;;1.00;1.00;;;;;10.15;58.52;100431.47;5064520;28;45798;-85
2023/04/09 03:30:28;;;;;;;;;4.75;4.75;;;;;9.78;58.72;100365.97;5074767;28;45998;-83
2023/04/09 03:32:54;;;;;;;;;3.25;2.00;;;;;10.18;59.03;100437.63;5078075;28;45453;-84
2023/04/09 03:35:20;;;;;;;;;8.50;8.50;;;;;10.14;59.28;100434.03;5077901;28;45766;-86
2023/04/09 03:37:45;;;;;;;;;9.75;9.00;;;;;10.15;59.34;100428.00;5077318;28;45297;-85
2023/04/09 03:40:12;;;;;;;;;5.75;5.50;;;;;10.14;59.18;100424.47;5077579;28;46183;-81
2023/04/09 03:42:37;;;;;;;;;4.00;4.00;;;;;10.14;59.69;100426.22;5077375;28;45386;-85
2023/04/09 03:45:04;;;;;;;;;5.00;5.00;;;;;10.15;59.09;100418.44;5072269;27;45505;-85
2023/04/09 03:47:29;;;;;;;;;8.50;8.50;;;;;10.22;58.44;100422.09;5069991;28;45402;-85
2023/04/09 03:49:55;;;;;;;;;10.50;8.00;;;;;10.26;58.85;100420.47;5076649;28;46376;-71
2023/04/09 03:52:20;;;;;;;;;4.75;4.00;;;;;10.27;58.15;100419.66;5076784;28;45255;-84
2023/04/09 03:54:46;;;;;;;;;3.25;3.25;;;;;10.27;57.81;100424.88;5077818;28;45440;-85
2023/04/09 03:57:11;;;;;;;;;2.00;2.00;;;;;10.19;57.36;100405.47;5077844;28;45437;-85
2023/04/09 03:59:40;;;;;;;;;2.00;2.00;;;;;10.29;57.64;100423.19;5077126;28;45299;-84
2023/04/09 04:02:15;;;;;;;;;3.00;3.00;;;;;10.33;57.69;100428.56;5077817;28;45528;-84
2023/04/09 04:04:44;;;;;;;;;2.50;2.50;;;;;10.33;57.70;100425.94;5076944;28;45540;-67
2023/04/09 04:07:13;;;;;;;;;2.50;2.00;;;;;10.28;57.96;100405.72;5077121;28;45299;-67
2023/04/09 04:09:38;;;;;;;;;5.00;3.25;;;;;10.33;58.13;100414.63;5077681;28;46105;-85
2023/04/09 04:12:04;;;;;;;;;2.25;2.25;;;;;10.34;57.74;100416.38;5077450;28;45308;-84
2023/04/09 04:14:29;;;;;;;;;1.00;1.00;;;;;10.28;57.99;100397.91;5078107;28;45581;-82
2023/04/09 04:16:55;;;;;;;;;1.25;1.00;;;;;10.33;57.76;100398.97;5078829;28;45589;-82
2023/04/09 04:19:20;;;;;;;;;2.00;2.00;;;;;10.34;57.91;100405.94;5078038;28;45965;-84
2023/04/09 04:21:46;;;;;;;;;2.00;1.50;;;;;10.34;57.43;100405.94;5078110;28;45306;-84
2023/04/09 04:24:11;;;;;;;;;1.75;1.00;;;;;10.35;57.42;100403.38;5059899;28;45414;-85
2023/04/09 04:26:38;;;;;;;;;1.00;1.00;;;;;10.29;57.80;100392.72;5078320;28;45327;-85
2023/04/09 04:29:04;;;;;;;;;1.00;1.00;;;;;10.33;57.61;100404.19;5076257;28;46196;-84
2023/04/09 04:31:29;;;;;;;;;1.00;1.00;;;;;10.25;57.43;100384.78;5077776;28;45297;-84
2023/04/09 04:33:55;;;;;;;;;3.00;3.00;;;;;10.34;57.43;100398.09;5078385;28;45207;-83
2023/04/09 04:36:20;;;;;;;;;2.00;2.00;;;;;10.33;57.62;100398.97;5078421;28;45373;-83
2023/04/09 04:38:46;;;;;;;;;1.00;1.00;;;;;10.35;56.58;100392.94;5077808;28;45636;-84
2023/04/09 04:41:11;;;;;;;;;2.00;2.00;;;;;10.37;57.25;100406.03;5077653;28;45457;-83
2023/04/09 04:43:37;;;;;;;;;3.00;3.00;;;;;10.31;56.96;100398.91;5078055;28;45213;-85
2023/04/09 04:46:02;;;;;;;;;3.00;2.00;;;;;10.35;57.06;100410.34;5060060;28;45620;-84
2023/04/09 04:48:28;;;;;;;;;0.25;0.00;;;;;10.31;57.12;100411.09;5078122;28;45975;-85
2023/04/09 04:50:58;;;;;;;;;2.25;2.25;;;;;10.30;57.07;100414.53;5077860;28;45485;-84
2023/04/09 04:53:24;;;;;;;;;3.25;3.00;;;;;10.35;56.93;100406.00;5077984;28;45296;-84
2023/04/09 04:55:50;;;;;;;;;2.00;2.00;;;;;10.42;55.57;100414.88;5077909;28;45457;-84
2023/04/09 04:58:16;;;;;;;;;2.75;2.00;;;;;10.46;55.32;100414.13;5077626;28;45457;-84
2023/04/09 05:00:41;;;;;;;;;1.75;1.75;;;;;10.50;55.92;100421.22;5073081;28;45359;-85
2023/04/09 05:03:07;;;;;;;;;2.00;1.50;;;;;10.49;56.37;100429.88;5076640;28;45446;-85
2023/04/09 05:05:32;;;;;;;;;2.00;2.00;;;;;10.41;55.95;100420.94;5076615;28;45361;-85
2023/04/09 05:07:58;;;;;;;;;2.00;2.00;;;;;10.44;56.40;100423.63;5076221;28;46094;-83
2023/04/09 05:10:23;;;;;;;;;2.75;2.75;;;;;10.36;56.88;100414.69;5075288;28;45564;-84
2023/04/09 05:12:49;;;;;;;;;3.00;3.00;;;;;10.31;57.02;100413.69;5076118;28;45317;-84
2023/04/09 05:15:14;;;;;;;;;3.00;3.00;;;;;10.33;56.81;100409.41;5076537;28;45357;-84
2023/04/09 05:17:43;;;;;;;;;3.00;3.00;;;;;10.42;55.44;100408.78;5076541;28;46211;-85
2023/04/09 05:20:09;;;;;;;;;4.50;3.00;;;;;10.46;55.59;100413.25;5075743;28;45332;-85
2023/04/09 05:22:35;;;;;;;;;3.00;2.00;;;;;10.57;54.23;100418.78;5071068;28;45224;-84
2023/04/09 05:25:01;;;;;;;;;3.25;2.75;;;;;10.63;54.36;100421.56;5066444;28;45331;-71
2023/04/09 05:27:27;;;;;;;;;2.25;2.00;;;;;10.63;53.50;100408.50;5076263;28;45607;-85
2023/04/09 05:29:53;;;;;;;;;2.00;2.00;;;;;10.74;52.69;100415.78;5041162;28;45474;-84
2023/04/09 05:32:18;;;;;;;;;3.00;3.00;;;;;10.93;51.03;100430.22;5052415;28;45609;-84
2023/04/09 05:34:44;;;;;;;;;3.00;3.00;;;;;11.03;51.35;100420.00;5047147;28;45486;-84
2023/04/09 05:37:09;;;;;;;;;3.00;2.75;;;;;11.19;50.60;100424.78;5044746;28;45564;-84
2023/04/09 05:39:35;;;;;;;;;2.00;2.00;;;;;11.34;49.06;100427.78;5073324;28;45571;-85
2023/04/09 05:42:01;;;;;;;;;3.00;3.00;;;;;11.48;48.33;100424.59;5079979;28;45379;-84
2023/04/09 05:44:26;;;;;;;;;2.75;2.75;;;;;11.63;47.75;100435.44;5080116;28;45434;-85
2023/04/09 05:46:52;;;;;;;;;3.00;2.00;;;;;11.75;47.01;100443.59;5058283;28;46177;-84
2023/04/09 05:49:17;;;;;;;;;2.50;2.00;;;;;11.85;47.41;100451.66;5059484;28;45312;-84
2023/04/09 05:51:43;;;;;;;;;3.00;3.00;;;;;11.94;47.03;100444.94;5060035;28;45544;-83
2023/04/09 05:54:09;;;;;;;;;4.00;4.00;;;;;11.99;46.55;100439.81;5069718;28;45560;-83
2023/04/09 05:56:34;;;;;;;;;3.00;3.00;;;;;12.10;47.09;100453.16;5076879;28;45521;-83
2023/04/09 05:59:00;;;;;;;;;3.00;3.00;;;;;12.11;46.34;100434.81;5057857;28;45652;-84
2023/04/09 06:01:26;;;;;;;;;4.00;3.75;;;;;12.29;45.82;100455.28;5069735;28;45466;-83
2023/04/09 06:03:51;;;;;;;;;2.25;2.25;;;;;12.37;46.69;100451.97;5077505;28;45577;-84
2023/04/09 06:06:17;;;;;;;;;3.25;3.00;;;;;12.47;45.33;100448.69;5059662;28;45534;-81
2023/04/09 06:08:44;;;;;;;;;3.25;2.25;;;;;12.61;44.73;100447.22;5077308;28;45373;-83
2023/04/09 06:11:13;;;;;;;;;3.25;2.50;;;;;12.85;43.67;100445.94;5077774;28;45430;-84
2023/04/09 06:13:43;;;;;;;;;2.00;2.00;;;;;13.02;42.71;100441.03;5075879;28;45493;-83
2023/04/09 06:16:09;;;;;;;;;2.75;2.00;;;;;13.25;41.87;100452.81;5077972;28;45375;-84
2023/04/09 06:18:36;;;;;;;;;3.25;2.25;;;;;13.45;41.65;100463.69;5077862;28;45368;-83
2023/04/09 06:21:06;;;;;;;;;2.00;2.00;;;;;13.70;40.98;100467.56;5060995;28;45481;-83
2023/04/09 06:23:32;;;;;;;;;2.75;2.25;;;;;13.96;40.23;100464.47;5080228;28;45555;-82
2023/04/09 06:25:59;;;;;;;;;3.25;3.00;;;;;14.24;39.95;100470.13;5060948;28;46300;-83
2023/04/09 06:28:25;;;;;;;;;3.75;3.00;;;;;14.41;39.60;100447.59;5078942;27;45592;-84
2023/04/09 06:30:52;;;;;;;;;2.75;2.75;;;;;14.75;39.60;100465.56;5078704;28;45510;-83
2023/04/09 06:33:19;;;;;;;;;3.75;3.00;;;;;14.95;39.46;100460.50;5076551;28;45529;-83
2023/04/09 06:35:45;;;;;;;;;4.50;2.00;;;;;15.04;39.12;100440.44;5077795;28;46239;-84
2023/04/09 06:38:10;;;;;;;;;3.75;3.00;;;;;15.33;38.36;100463.50;5078359;28;45446;-84
2023/04/09 06:40:37;;;;;;;;;2.00;2.00;;;;;15.52;38.69;100467.22;5078782;28;45485;-76
2023/04/09 06:43:03;;;;;;;;;3.25;3.00;;;;;15.71;38.31;100470.84;5079499;28;45376;-83
2023/04/09 06:45:30;;;;;;;;;2.00;2.00;;;;;15.93;37.79;100471.94;5078981;28;45483;-84
2023/04/09 06:47:55;;;;;;;;;4.00;3.00;;;;;16.30;37.67;100466.91;5060195;28;45599;-70
2023/04/09 06:50:21;;;;;;;;;3.67;3.00;;;;;16.56;37.08;100484.59;5078606;28;45497;-83
2023/04/09 06:52:47;;;;;;;;;4.00;3.00;;;;;16.87;36.62;100483.88;5059485;28;45378;-74
2023/04/09 06:55:13;;;;;;;;;2.67;2.67;;;;;17.22;36.20;100484.81;5077800;28;46227;-83
2023/04/09 06:57:38;;;;;;;;;3.00;3.00;;;;;17.54;35.57;100482.22;5079438;28;45430;-68
2023/04/09 07:00:05;;;;;;;;;3.33;3.33;;;;;17.82;35.30;100477.81;5078909;28;45344;-70
2023/04/09 07:02:31;;;;;;;;;4.00;4.00;;;;;18.28;34.24;100483.06;5079218;28;45653;-85
2023/04/09 07:04:56;;;;;;;;;2.00;2.00;;;;;18.73;33.59;100482.91;5075445;28;46093;-83
2023/04/09 07:07:22;;;;;;;;;3.00;3.00;;;;;19.26;32.90;100471.16;5078534;28;45518;-74
2023/04/09 07:09:48;;;;;;;;;3.00;3.00;;;;;19.31;32.58;100487.00;5077840;28;45439;-67
2023/04/09 07:12:13;;;;;;;;;2.67;2.67;;;;;19.18;32.36;100478.28;5077433;28;45430;-69
2023/04/09 07:14:39;;;;;;;;;2.33;1.33;;;;;19.98;31.84;100472.34;5077378;28;45461;-68
2023/04/09 07:17:04;;;;;;;;;2.00;2.00;;;;;20.71;30.88;100472.47;5078004;27;45655;-67
2023/04/09 07:19:33;;;;;;;;;3.00;2.33;;;;;21.49;29.49;100474.88;5062090;28;45496;-67
2023/04/09 07:21:58;;;;;;;;;3.00;2.00;;;;;22.51;28.44;100468.63;5078157;28;45419;-82
2023/04/09 07:24:24;;;;;;;;;4.00;4.00;;;;;23.31;28.00;100464.22;5077862;28;46133;-76
2023/04/09 07:26:50;;;;;;;;;2.67;2.67;;;;;24.14;26.06;100459.47;5078431;28;45611;-83
2023/04/09 07:29:15;;;;;;;;;2.00;2.00;;;;;25.57;24.97;100466.75;5078267;28;45485;-82
2023/04/09 07:31:41;;;;;;;;;2.00;2.00;;;;;26.59;24.46;100458.72;5078161;28;45692;-83
2023/04/09 07:34:06;;;;;;;;;3.33;2.00;;;;;27.13;22.51;100453.94;5077833;28;46005;-82
2023/04/09 07:36:32;;;;;;;;;3.00;2.00;;;;;27.50;22.57;100454.31;5078137;28;45626;-84
2023/04/09 07:38:57;;;;;;;;;3.00;2.00;;;;;28.73;21.78;100448.91;5078062;28;45526;-81
2023/04/09 07:41:23;;;;;;;;;4.00;3.00;;;;;29.58;20.17;100456.44;5078079;28;45529;-84
2023/04/09 07:43:48;;;;;;;;;2.00;2.00;;;;;30.18;19.65;100450.66;5077804;28;46060;-85
2023/04/09 07:46:23;;;;;;;;;3.00;2.00;;;;;30.05;20.25;100450.47;5077795;28;45436;-83
2023/04/09 07:48:49;;;;;;;;;2.67;2.00;;;;;30.04;19.60;100446.03;5075500;27;45376;-79
2023/04/09 07:51:15;;;;;;;;;2.67;2.67;;;;;30.41;19.85;100454.00;5078158;28;45537;-84
2023/04/09 07:53:40;;;;;;;;;2.00;2.00;;;;;31.26;18.94;100459.13;5077156;28;45905;-84
2023/04/09 07:56:06;;;;;;;;;3.67;2.33;;;;;31.62;18.72;100471.47;5059590;28;45443;-84
2023/04/09 07:58:32;;;;;;;;;1.00;1.00;;;;;32.26;16.91;100469.41;5077844;28;45492;-84
2023/04/09 08:00:57;;;;;;;;;2.00;2.00;;;;;32.84;17.98;100467.59;5077735;28;45363;-76
2023/04/09 08:03:23;;;;;;;;;1.00;0.33;;;;;33.37;17.00;100459.66;5058926;28;46394;-83
2023/04/09 08:05:49;;;;;;;;;3.67;2.00;;;;;33.79;16.78;100452.34;5077439;28;45376;-80
2023/04/09 08:08:14;;;;;;;;;1.00;1.00;;;;;34.29;16.97;100454.38;5059810;28;45260;-84
2023/04/09 08:10:40;;;;;;;;;1.00;1.00;;;;;34.71;16.89;100455.84;5077908;28;45224;-85
2023/04/09 08:13:06;;;;;;;;;2.00;1.00;;;;;35.03;16.32;100456.19;5077363;28;45521;-80
2023/04/09 08:15:31;;;;;;;;;2.00;1.00;;;;;35.49;15.98;100457.34;5058721;28;45379;-80
2023/04/09 08:17:57;;;;;;;;;1.00;1.00;;;;;35.86;15.18;100453.69;5077047;28;46073;-79
2023/04/09 08:20:22;;;;;;;;;1.33;1.00;;;;;36.05;14.80;100459.38;5077568;28;45602;-81
2023/04/09 08:22:48;;;;;;;;;1.00;1.00;;;;;36.15;14.89;100454.09;5076493;28;45464;-75
2023/04/09 08:25:13;;;;;;;;;2.00;1.00;;;;;36.43;14.80;100458.22;5077063;28;45331;-79
2023/04/09 08:27:39;;;;;;;;;2.67;1.00;;;;;36.69;14.78;100453.47;5077832;28;45341;-73
2023/04/09 08:30:05;;;;;;;;;3.00;2.67;;;;;36.71;14.95;100465.09;5078401;28;45445;-78
2023/04/09 08:32:31;;;;;;;;;1.67;1.67;;;;;36.88;14.23;100462.84;5077509;27;45486;-79
2023/04/09 08:34:56;;;;;;;;;0.67;0.67;;;;;37.02;13.99;100468.84;5076074;27;45459;-81
2023/04/09 08:37:22;;;;;;;;;2.00;2.00;;;;;37.15;13.70;100463.31;5077532;28;45557;-72
2023/04/09 08:39:47;;;;;;;;;1.33;1.00;;;;;37.39;13.90;100454.94;5077254;28;45540;-81
2023/04/09 08:42:14;;;;;;;;;2.33;2.33;;;;;37.50;14.26;100461.31;5076905;28;45454;-81
2023/04/09 08:44:40;;;;;;;;;3.00;3.00;;;;;37.68;13.84;100469.81;5076956;28;45453;-69
2023/04/09 08:47:10;;;;;;;;;3.67;2.00;;;;;38.04;14.03;100473.09;5077463;28;45549;-84
2023/04/09 08:49:39;;;;;;;;;2.00;2.00;;;;;38.29;12.79;100469.13;5059925;28;45414;-81
2023/04/09 08:52:05;;;;;;;;;1.67;1.67;;;;;38.18;12.98;100461.88;5077737;28;46225;-76
2023/04/09 08:54:32;;;;;;;;;1.67;1.67;;;;;38.48;13.63;100466.50;5081587;28;46002;-72
2023/04/09 08:56:58;;;;;;;;;2.67;1.67;;;;;38.70;12.32;100460.00;5085778;28;45280;-78
2023/04/09 08:59:23;;;;;;;;;1.67;1.67;;;;;38.92;13.60;100458.91;5084037;28;44755;-73
2023/04/09 09:02:06;;;;;;;;;1.00;1.00;;;;;39.03;13.35;100466.16;5084105;28;45426;-69
2023/04/09 09:04:45;;;;;;;;;2.00;2.00;;;;;38.36;13.50;100456.66;5081318;28;45477;-69
2023/04/09 09:07:11;;;;;;;;;1.67;1.67;;;;;38.34;12.75;100461.38;5083855;28;45356;-69
2023/04/09 09:10:09;;;;;;;;;1.67;1.67;;;;;38.44;13.30;100469.63;5083557;27;45469;-72
2023/04/09 09:12:34;;;;;;;;;2.00;2.00;;;;;38.65;12.62;100466.88;5036037;28;46397;-69
2023/04/09 09:15:01;;;;;;;;;1.00;1.00;;;;;38.85;13.25;100462.34;5082333;28;45484;-69
2023/04/09 09:17:27;;;;;;;;;2.00;2.00;;;;;38.90;12.93;100452.72;5061812;28;45509;-85
2023/04/09 09:19:52;;;;;;;;;2.00;2.00;;;;;39.08;11.86;100460.28;5067727;28;45335;-86
2023/04/09 09:22:18;;;;;;;;;0.67;0.67;;;;;38.89;12.44;100456.44;5079847;28;46054;-86
2023/04/09 09:24:47;;;;;;;;;1.00;1.00;;;;;38.46;13.03;100460.31;5080035;28;45785;-70
2023/04/09 09:27:31;;;;;;;;;2.00;2.00;;;;;38.46;12.93;100463.03;5057921;28;45508;-71
2023/04/09 09:29:57;;;;;;;;;7.67;6.00;;;;;38.53;12.68;100460.66;5069164;28;45547;-84
2023/04/09 09:32:24;;;;;;;;;1.67;1.67;;;;;38.60;12.63;100461.84;5079257;27;45527;-70
2023/04/09 09:35:01;;;;;;;;;2.33;2.33;;;;;38.38;12.73;100462.81;5078434;27;45454;-70
2023/04/09 09:37:27;;;;;;;;;1.00;0.00;;;;;38.34;12.29;100458.66;5060782;28;45441;-70
2023/04/09 09:39:54;;;;;;;;;2.67;1.67;;;;;38.49;12.76;100462.75;5079612;28;45512;-81
2023/04/09 09:42:20;;;;;;;;;2.33;1.67;;;;;38.66;12.51;100464.00;5050468;28;45442;-71
2023/04/09 09:44:46;;;;;;;;;2.67;2.33;;;;;38.35;13.25;100465.84;5041718;28;45426;-69
2023/04/09 09:47:13;;;;;;;;;1.33;1.00;;;;;38.18;13.43;100456.41;5060281;28;45635;-81
2023/04/09 09:49:39;;;;;;;;;2.00;1.00;;;;;38.25;13.10;100465.78;5079401;28;45244;-70
2023/04/09 09:52:09;;;;;;;;;1.67;1.67;;;;;37.04;12.56;100463.28;5078008;28;45985;-79
2023/04/09 09:54:46;;;;;;;;;1.67;1.67;;;;;36.92;13.22;100457.00;5062980;28;45498;-80
2023/04/09 09:57:15;;;;;;;;;12.00;12.00;;;;;37.21;13.18;100446.44;5064549;28;45542;-76
2023/04/09 09:59:46;;;;;;;;;2.00;2.00;;;;;37.46;13.05;100448.97;5079467;27;45381;-80
2023/04/09 10:02:21;;;;;;;;;4.67;4.00;;;;;37.36;13.71;100451.59;5046494;28;48112;-79
2023/04/09 10:04:51;;;;;;;;;6.00;6.00;;;;;37.42;12.87;100453.78;5072524;28;45449;-82
2023/04/09 10:07:20;;;;;;;;;2.33;2.33;;;;;37.18;13.58;100454.88;5079193;28;45483;-84
2023/04/09 10:09:49;;;;;;;;;3.33;3.33;;;;;37.11;13.38;100453.63;5079001;28;45319;-69
2023/04/09 10:12:15;;;;;;;;;3.00;3.00;;;;;37.30;13.42;100444.78;5043866;28;45443;-72
2023/04/09 10:14:42;;;;;;;;;6.67;6.67;;;;;37.36;13.48;100455.16;5078677;27;45510;-68
2023/04/09 10:17:09;;;;;;;;;8.00;6.67;;;;;37.19;12.79;100461.19;5079705;28;45310;-82
2023/04/09 10:19:43;;;;;;;;;2.67;2.67;;;;;36.81;12.52;100455.16;5080042;27;45414;-74
2023/04/09 10:22:08;;;;;;;;;9.67;8.67;;;;;36.77;12.49;100461.00;5080495;28;45496;-81
2023/04/09 10:24:35;;;;;;;;;1.67;0.67;;;;;37.00;12.83;100450.94;5079422;28;45338;-71
2023/04/09 10:27:15;;;;;;;;;10.67;10.00;;;;;37.08;12.46;100453.00;5079230;28;45485;-73
2023/04/09 10:29:48;;;;;;;;;1.00;1.00;;;;;37.03;12.09;100445.25;5078974;28;45461;-81
2023/04/09 10:32:22;;;;;;;;;9.33;8.67;;;;;37.05;12.44;100442.34;5078223;27;45447;-74
2023/04/09 10:34:58;;;;;;;;;4.00;3.33;;;;;36.73;12.38;100440.44;5079619;28;45313;-80
2023/04/09 10:37:28;;;;;;;;;1.00;0.67;;;;;36.62;13.04;100441.28;5080878;28;45433;-85
2023/04/09 10:39:55;;;;;;;;;1.67;1.67;;;;;36.66;12.64;100429.19;5080323;28;45366;-85
2023/04/09 10:42:39;;;;;;;;;2.33;2.00;;;;;36.41;13.10;100436.63;5079911;28;46243;-77
2023/04/09 10:45:12;;;;;;;;;1.67;1.67;;;;;36.44;13.48;100440.94;5079121;28;45439;-68
2023/04/09 10:47:40;;;;;;;;;0.67;0.67;;;;;36.26;11.83;100439.69;5078682;28;45350;-69
2023/04/09 10:50:20;;;;;;;;;1.33;1.33;;;;;36.00;12.35;100432.56;5079000;28;45463;-73
2023/04/09 10:52:50;;;;;;;;;1.33;1.33;;;;;36.06;13.16;100436.66;5079001;28;45425;-81
2023/04/09 10:55:35;;;;;;;;;3.67;3.67;;;;;36.06;13.08;100442.09;5078454;28;45537;-72
2023/04/09 10:58:09;;;;;;;;;2.00;1.67;;;;;35.81;12.39;100438.59;5078417;28;45480;-74
2023/04/09 11:00:39;;;;;;;;;2.00;2.00;;;;;35.32;12.86;100434.19;5078521;28;45390;-69
2023/04/09 11:03:10;;;;;;;;;1.67;0.67;;;;;35.05;12.73;100429.81;5078163;28;46243;-71
2023/04/09 11:05:37;;;;;;;;;1.67;1.33;;;;;34.62;13.35;100422.09;5078311;28;45469;-71
2023/04/09 11:08:09;;;;;;;;;1.33;1.33;;;;;34.57;13.83;100416.13;5060134;28;45434;-70
2023/04/09 11:10:36;;;;;;;;;0.67;0.67;;;;;34.47;13.54;100428.63;5078109;28;45520;-72
2023/04/09 11:13:02;;;;;;;;;0.00;0.00;;;;;34.22;13.61;100438.53;5077521;28;46173;-71
2023/04/09 11:15:28;;;;;;;;;0.00;0.00;;;;;33.96;13.82;100423.19;5078263;28;45490;-73
2023/04/09 11:17:54;;;;;;;;;1.67;1.67;;;;;33.57;13.62;100422.25;5078343;28;45465;-73
2023/04/09 11:20:21;;;;;;;;;1.00;0.33;;;;;33.09;14.45;100410.06;5078778;28;45468;-69
2023/04/09 11:22:49;;;;;;;;;1.00;1.00;;;;;33.23;15.57;100424.53;5078118;28;46112;-76
2023/04/09 11:25:26;;;;;;;;;1.00;0.00;;;;;33.20;14.91;100416.59;5077611;28;45439;-69